Time;durP1;ratioP1;P1;durP2;ratioP2;P2;SDS_P1;SDS_P2;PMS_P1;PMS_P2;Temp;Humidity;BMP_temperature;BMP_pressure;BME280_temperature;BME280_humidity;BME280_pressure;Samples;Min_cycle;Max_cycle;Signal;HPM_P1;HPM_P2
2022/09/27 00:01:28;;;;;;;2.60;1.98;;;15.40;90.50;;;;;;1915093;75;21040;-56
2022/09/27 00:03:59;;;;;;;2.77;1.67;;;15.50;90.60;;;;;;1914846;75;21036;-56
2022/09/27 00:06:30;;;;;;;2.50;1.70;;;15.40;90.50;;;;;;1903666;75;21127;-56
2022/09/27 00:09:00;;;;;;;5.85;2.25;;;15.40;90.40;;;;;;1902271;75;21539;-56
2022/09/27 00:11:38;;;;;;;2.98;1.75;;;15.40;90.40;;;;;;1902253;75;21028;-57
2022/09/27 00:14:07;;;;;;;4.95;2.30;;;15.40;90.50;;;;;;1902217;75;21028;-56
2022/09/27 00:16:39;;;;;;;5.97;2.30;;;15.30;90.50;;;;;;1902209;75;21102;-56
2022/09/27 00:19:14;;;;;;;2.85;2.52;;;15.30;90.80;;;;;;1902186;75;21189;-56
2022/09/27 00:21:44;;;;;;;6.12;2.52;;;15.20;90.60;;;;;;1901950;75;21395;-56
2022/09/27 00:24:15;;;;;;;5.95;3.05;;;15.30;90.60;;;;;;1902160;75;21099;-57
2022/09/27 00:26:45;;;;;;;6.72;2.75;;;15.30;90.70;;;;;;1902210;75;21040;-56
2022/09/27 00:29:16;;;;;;;6.22;3.58;;;15.20;90.70;;;;;;1902104;75;21089;-56
2022/09/27 00:31:46;;;;;;;8.20;3.22;;;15.20;90.80;;;;;;1902236;75;21029;-57
2022/09/27 00:34:25;;;;;;;5.75;3.27;;;15.20;90.80;;;;;;1902181;75;21029;-56
2022/09/27 00:36:55;;;;;;;3.45;2.70;;;15.20;90.80;;;;;;1902214;75;21036;-57
2022/09/27 00:39:24;;;;;;;4.25;3.00;;;15.20;90.70;;;;;;1902284;75;21072;-57
2022/09/27 00:41:54;;;;;;;4.03;2.45;;;15.20;90.60;;;;;;1902199;75;21118;-57
2022/09/27 00:44:32;;;;;;;3.00;2.45;;;15.10;90.60;;;;;;1902147;75;21020;-57
2022/09/27 00:47:07;;;;;;;4.97;2.15;;;15.20;90.70;;;;;;1902096;75;21025;-57
2022/09/27 00:49:40;;;;;;;4.30;2.62;;;15.10;90.60;;;;;;1902223;75;21057;-57
2022/09/27 00:52:15;;;;;;;6.75;2.08;;;15.10;90.70;;;;;;1901070;75;21041;-57
2022/09/27 00:54:47;;;;;;;3.33;2.10;;;15.10;90.80;;;;;;1902321;75;21100;-57
2022/09/27 00:57:18;;;;;;;4.58;2.65;;;15.10;90.80;;;;;;1902195;75;21028;-57
2022/09/27 00:59:49;;;;;;;3.85;2.40;;;15.10;90.70;;;;;;1902175;75;21110;-57
2022/09/27 01:02:19;;;;;;;2.15;1.95;;;15.10;90.70;;;;;;1902291;75;21551;-57
2022/09/27 01:04:49;;;;;;;3.45;2.58;;;15.10;90.80;;;;;;1902070;75;21098;-57
2022/09/27 01:07:18;;;;;;;3.83;2.30;;;15.10;90.80;;;;;;1902322;75;21025;-57
2022/09/27 01:09:48;;;;;;;6.17;2.80;;;15.20;90.80;;;;;;1902149;75;21087;-57
2022/09/27 01:12:28;;;;;;;5.47;2.55;;;15.10;90.70;;;;;;1902307;75;21033;-57
2022/09/27 01:15:21;;;;;;;5.58;3.12;;;15.10;90.70;;;;;;1901431;75;21017;-57
2022/09/27 01:17:59;;;;;;;3.58;2.47;;;15.10;90.60;;;;;;1799201;79;21158;-57
2022/09/27 01:20:51;;;;;;;4.08;2.52;;;15.00;90.60;;;;;;1882380;75;21110;-57
2022/09/27 01:23:35;;;;;;;4.00;2.60;;;14.90;90.70;;;;;;1902222;75;21482;-57
2022/09/27 01:26:13;;;;;;;5.53;2.60;;;14.90;90.70;;;;;;1901784;75;21114;-57
2022/09/27 01:29:09;;;;;;;3.90;2.50;;;14.80;90.70;;;;;;1902538;75;21411;-56
2022/09/27 01:31:54;;;;;;;3.83;2.60;;;14.80;90.80;;;;;;1902370;75;21044;-56
2022/09/27 01:34:35;;;;;;;2.67;2.15;;;14.80;90.80;;;;;;1809775;75;21171;-55
2022/09/27 01:37:23;;;;;;;3.17;2.50;;;14.80;90.80;;;;;;1902198;75;21075;-56
2022/09/27 01:39:55;;;;;;;3.52;2.10;;;14.80;90.90;;;;;;1902352;75;21004;-56
2022/09/27 01:42:43;;;;;;;3.80;1.82;;;14.80;90.90;;;;;;1889729;75;21059;-57
2022/09/27 01:45:18;;;;;;;4.08;2.65;;;14.80;90.80;;;;;;1902024;75;21024;-56
2022/09/27 01:47:58;;;;;;;3.98;2.12;;;14.80;90.80;;;;;;1900967;75;21032;-56
2022/09/27 01:50:47;;;;;;;7.47;2.33;;;14.80;90.90;;;;;;1899073;75;21033;-56
2022/09/27 01:53:31;;;;;;;4.15;2.00;;;14.80;90.70;;;;;;1902344;75;21032;-56
2022/09/27 01:56:08;;;;;;;3.05;1.90;;;14.80;90.70;;;;;;1883948;75;21020;-57
2022/09/27 01:59:09;;;;;;;3.55;2.42;;;14.90;90.70;;;;;;1889230;75;21049;-57
2022/09/27 02:01:41;;;;;;;6.80;2.50;;;14.90;90.70;;;;;;1902272;75;21032;-57
2022/09/27 02:04:13;;;;;;;2.47;2.15;;;14.90;90.80;;;;;;1902112;75;21115;-57
2022/09/27 02:07:03;;;;;;;5.20;2.70;;;14.90;90.60;;;;;;1903580;75;21088;-56
2022/09/27 02:09:36;;;;;;;7.75;3.22;;;14.80;90.70;;;;;;1902243;75;21049;-56
2022/09/27 02:12:10;;;;;;;5.65;2.90;;;14.80;90.70;;;;;;1900733;75;21042;-57
2022/09/27 02:14:54;;;;;;;7.83;2.95;;;14.80;90.80;;;;;;1902087;75;21024;-57
2022/09/27 02:17:41;;;;;;;4.37;2.60;;;14.80;90.90;;;;;;1902384;75;21056;-57
2022/09/27 02:20:33;;;;;;;4.55;2.30;;;14.80;90.90;;;;;;1902223;75;21032;-57
2022/09/27 02:23:31;;;;;;;7.45;3.37;;;14.80;90.90;;;;;;1901961;75;21099;-56
2022/09/27 02:26:10;;;;;;;4.40;2.52;;;14.80;91.00;;;;;;1901284;75;21056;-56
2022/09/27 02:28:43;;;;;;;5.65;2.80;;;14.80;91.00;;;;;;1897596;75;21098;-56
2022/09/27 02:31:13;;;;;;;3.77;2.40;;;14.80;91.00;;;;;;1902015;75;21047;-56
2022/09/27 02:33:51;;;;;;;3.08;2.42;;;14.80;91.00;;;;;;1902002;75;20997;-56
2022/09/27 02:36:22;;;;;;;6.03;2.50;;;14.80;91.00;;;;;;1901027;75;21115;-57
2022/09/27 02:38:51;;;;;;;7.80;2.70;;;14.80;91.10;;;;;;1902075;75;21024;-57
2022/09/27 02:41:22;;;;;;;8.43;2.55;;;14.80;91.20;;;;;;1902177;75;21021;-56
2022/09/27 02:43:56;;;;;;;5.17;2.12;;;14.80;91.20;;;;;;1902034;75;21428;-57
2022/09/27 02:46:28;;;;;;;4.72;2.37;;;14.80;91.20;;;;;;1902395;75;21024;-57
2022/09/27 02:49:20;;;;;;;4.08;2.50;;;14.80;91.10;;;;;;1900850;75;21025;-57
2022/09/27 02:52:22;;;;;;;3.70;2.45;;;14.70;91.20;;;;;;1898796;75;21111;-57
2022/09/27 02:55:11;;;;;;;5.72;3.67;;;14.70;91.20;;;;;;1901083;75;21052;-56
2022/09/27 02:58:00;;;;;;;10.32;4.42;;;14.70;91.20;;;;;;1900858;75;21088;-57
2022/09/27 03:01:01;;;;;;;4.70;2.72;;;14.70;91.30;;;;;;1902284;75;21158;-57
2022/09/27 03:03:49;;;;;;;5.47;3.05;;;14.70;91.10;;;;;;1899092;75;21121;-56
2022/09/27 03:06:20;;;;;;;6.40;2.95;;;14.60;91.10;;;;;;1902435;75;21028;-57
2022/09/27 03:08:50;;;;;;;7.20;3.22;;;14.50;91.10;;;;;;1902139;75;21056;-57
2022/09/27 03:11:20;;;;;;;6.15;4.35;;;14.50;91.10;;;;;;1902154;75;21040;-57
2022/09/27 03:13:49;;;;;;;3.77;3.10;;;14.40;91.20;;;;;;1902201;75;21009;-57
2022/09/27 03:16:18;;;;;;;19.02;4.33;;;14.40;91.20;;;;;;1902153;75;21009;-57
2022/09/27 03:18:55;;;;;;;8.40;3.20;;;14.40;91.30;;;;;;1900645;75;21047;-57
2022/09/27 03:21:43;;;;;;;4.80;3.35;;;14.40;91.30;;;;;;1902214;75;21490;-57
2022/09/27 03:24:12;;;;;;;9.73;3.98;;;14.40;91.40;;;;;;1902148;75;21036;-57
2022/09/27 03:26:42;;;;;;;6.60;3.08;;;14.40;91.30;;;;;;1902327;75;21009;-57
2022/09/27 03:29:11;;;;;;;8.33;3.87;;;14.40;91.20;;;;;;1902315;75;21044;-57
2022/09/27 03:31:41;;;;;;;8.38;4.08;;;14.40;91.30;;;;;;1901985;75;21055;-57
2022/09/27 03:34:21;;;;;;;23.15;7.85;;;14.40;91.10;;;;;;1836746;78;21063;-56
2022/09/27 03:36:51;;;;;;;16.67;4.83;;;14.40;91.10;;;;;;1902154;75;21036;-57
2022/09/27 03:39:20;;;;;;;16.07;6.67;;;14.40;91.10;;;;;;1902182;75;21090;-57
2022/09/27 03:41:49;;;;;;;14.83;4.28;;;14.40;91.20;;;;;;1902221;75;21435;-57
2022/09/27 03:44:19;;;;;;;9.90;3.58;;;14.40;91.20;;;;;;1902245;75;21028;-57
2022/09/27 03:46:49;;;;;;;5.35;2.50;;;14.40;91.10;;;;;;1902193;75;21036;-57
2022/09/27 03:49:19;;;;;;;7.60;3.60;;;14.40;91.20;;;;;;1902037;75;21027;-57
2022/09/27 03:51:48;;;;;;;11.18;3.30;;;14.40;91.20;;;;;;1902085;75;21096;-57
2022/09/27 03:54:17;;;;;;;14.47;3.52;;;14.40;91.10;;;;;;1902010;75;21137;-57
2022/09/27 03:56:47;;;;;;;8.20;4.45;;;14.40;91.10;;;;;;1902175;75;21028;-56
2022/09/27 03:59:16;;;;;;;12.15;4.10;;;14.40;91.10;;;;;;1902034;75;21032;-57
2022/09/27 04:01:47;;;;;;;15.40;6.35;;;14.40;91.10;;;;;;1860551;75;21080;-57
2022/09/27 04:04:18;;;;;;;14.95;5.78;;;14.40;91.20;;;;;;1899728;75;21059;-57
2022/09/27 04:06:48;;;;;;;14.43;6.00;;;14.40;91.20;;;;;;1902260;75;21040;-57
2022/09/27 04:09:17;;;;;;;13.25;5.08;;;14.50;91.30;;;;;;1906988;75;21056;-56
2022/09/27 04:11:57;;;;;;;8.50;4.67;;;14.50;91.30;;;;;;1913653;75;21100;-57
2022/09/27 04:14:26;;;;;;;13.00;5.28;;;14.60;91.20;;;;;;1914933;75;21118;-57
2022/09/27 04:17:10;;;;;;;13.35;4.60;;;14.70;91.20;;;;;;1908958;75;21035;-57
2022/09/27 04:19:47;;;;;;;11.65;4.95;;;14.80;91.10;;;;;;1909952;75;21052;-57
2022/09/27 04:22:16;;;;;;;13.20;5.78;;;14.80;91.30;;;;;;1914723;75;21036;-57
2022/09/27 04:24:46;;;;;;;27.62;15.10;;;14.90;91.00;;;;;;1914676;75;21051;-57
2022/09/27 04:27:20;;;;;;;16.15;6.58;;;14.90;90.90;;;;;;1912836;75;21080;-56
2022/09/27 04:29:51;;;;;;;12.20;6.30;;;15.00;91.00;;;;;;1914911;75;21467;-56
2022/09/27 04:32:43;;;;;;;14.85;5.03;;;15.10;91.20;;;;;;1914622;75;21072;-57
2022/09/27 04:38:10;;;;;;;17.98;7.10;;;15.20;90.70;;;;;;1914770;75;21147;-56
2022/09/27 04:40:40;;;;;;;22.13;5.85;;;15.30;90.70;;;;;;1914768;75;21028;-57
2022/09/27 04:43:10;;;;;;;11.63;5.10;;;15.30;90.60;;;;;;1914658;75;21011;-57
2022/09/27 04:45:39;;;;;;;14.60;5.42;;;15.40;90.60;;;;;;1914700;75;21032;-56
2022/09/27 04:48:09;;;;;;;13.80;4.90;;;15.50;90.50;;;;;;1914764;75;21074;-57
2022/09/27 04:50:40;;;;;;;10.72;4.00;;;15.60;90.50;;;;;;1914692;75;21043;-56
2022/09/27 04:53:13;;;;;;;10.43;3.90;;;15.60;90.40;;;;;;1914672;75;21017;-57
2022/09/27 04:55:49;;;;;;;11.28;3.80;;;15.70;90.40;;;;;;1914766;75;21094;-56
2022/09/27 04:58:18;;;;;;;15.35;5.05;;;15.80;90.40;;;;;;1914747;75;21123;-57
2022/09/27 05:00:49;;;;;;;17.23;9.08;;;15.80;90.30;;;;;;1914619;75;21047;-56
2022/09/27 05:03:20;;;;;;;25.10;9.25;;;15.80;90.30;;;;;;1908738;75;21084;-57
2022/09/27 05:05:56;;;;;;;24.40;13.15;;;15.90;90.40;;;;;;1914072;75;21127;-57
2022/09/27 05:08:26;;;;;;;14.87;6.50;;;15.90;90.40;;;;;;1914628;75;21083;-56
2022/09/27 05:11:14;;;;;;;19.62;6.55;;;16.00;90.40;;;;;;1914669;75;21514;-57
2022/09/27 05:13:45;;;;;;;9.35;5.62;;;16.00;90.40;;;;;;1914654;75;21525;-57
2022/09/27 05:16:14;;;;;;;31.52;6.55;;;16.00;90.30;;;;;;1914686;75;21024;-57
2022/09/27 05:18:47;;;;;;;22.07;5.55;;;16.00;90.30;;;;;;1908834;75;21138;-57
2022/09/27 05:21:34;;;;;;;11.55;4.62;;;16.00;90.30;;;;;;1914804;75;21068;-56
2022/09/27 05:24:04;;;;;;;10.68;5.05;;;16.10;90.60;;;;;;1914763;75;21509;-56
2022/09/27 05:26:34;;;;;;;16.07;5.62;;;16.10;90.30;;;;;;1914725;75;21027;-57
2022/09/27 05:29:03;;;;;;;8.55;4.20;;;16.10;90.20;;;;;;1914812;75;20992;-57
2022/09/27 05:31:33;;;;;;;12.23;5.10;;;16.10;90.20;;;;;;1914600;75;21079;-57
2022/09/27 05:34:03;;;;;;;12.68;6.05;;;16.20;90.20;;;;;;1914739;75;21483;-57
2022/09/27 05:36:37;;;;;;;10.97;5.73;;;16.20;90.30;;;;;;1913074;74;21213;-57
2022/09/27 05:39:06;;;;;;;19.85;11.35;;;16.20;90.30;;;;;;1914600;75;21510;-57
2022/09/27 05:41:36;;;;;;;12.95;6.35;;;16.30;90.30;;;;;;1914730;75;21171;-56
2022/09/27 05:44:06;;;;;;;18.62;6.97;;;16.30;90.30;;;;;;1914525;75;21075;-56
2022/09/27 05:46:37;;;;;;;13.10;5.95;;;16.30;90.40;;;;;;1878205;75;21094;-58
2022/09/27 05:49:07;;;;;;;16.57;6.87;;;16.30;90.40;;;;;;1914732;75;21466;-57
2022/09/27 05:51:36;;;;;;;16.73;8.60;;;16.40;90.40;;;;;;1914587;75;21145;-57
2022/09/27 05:54:05;;;;;;;14.13;6.58;;;16.40;90.40;;;;;;1914642;75;21505;-57
2022/09/27 05:56:35;;;;;;;14.00;5.95;;;16.50;90.40;;;;;;1914705;75;21455;-57
2022/09/27 05:59:15;;;;;;;12.75;6.45;;;16.60;90.40;;;;;;1891549;75;21039;-57
2022/09/27 06:02:02;;;;;;;13.93;6.40;;;16.70;90.40;;;;;;1914531;75;21142;-57
2022/09/27 06:04:42;;;;;;;26.42;11.73;;;16.80;90.30;;;;;;1914405;75;21081;-57
2022/09/27 06:07:16;;;;;;;20.32;9.15;;;16.90;90.30;;;;;;1908930;75;21088;-57
2022/09/27 06:09:46;;;;;;;21.17;12.65;;;17.00;90.40;;;;;;1913279;75;21059;-57
2022/09/27 06:12:16;;;;;;;35.13;21.65;;;17.10;90.20;;;;;;1902014;75;21154;-57
2022/09/27 06:14:45;;;;;;;40.92;22.95;;;17.10;90.40;;;;;;1902145;75;21051;-57
2022/09/27 06:17:16;;;;;;;48.25;24.82;;;17.10;90.10;;;;;;1901365;75;21099;-57
2022/09/27 06:19:47;;;;;;;50.60;30.90;;;17.20;90.10;;;;;;1902010;75;21004;-57
2022/09/27 06:22:16;;;;;;;49.75;25.80;;;17.20;90.20;;;;;;1902059;75;21029;-57
2022/09/27 06:24:47;;;;;;;41.85;23.70;;;17.30;90.20;;;;;;1900126;75;21024;-57
2022/09/27 06:27:18;;;;;;;28.30;15.85;;;17.30;90.20;;;;;;1901355;75;21095;-57
2022/09/27 06:29:58;;;;;;;25.68;14.53;;;17.40;90.30;;;;;;1892796;75;21047;-56
2022/09/27 06:32:41;;;;;;;23.65;14.73;;;17.50;90.30;;;;;;1890730;75;21040;-56
2022/09/27 06:35:23;;;;;;;31.70;16.37;;;17.50;90.30;;;;;;1900794;75;21117;-56
2022/09/27 06:37:52;;;;;;;27.35;12.73;;;17.60;90.20;;;;;;1902031;75;21005;-56
2022/09/27 06:40:25;;;;;;;16.80;9.83;;;17.70;90.30;;;;;;1902026;75;21033;-56
2022/09/27 06:43:16;;;;;;;15.78;8.50;;;17.80;90.30;;;;;;1900135;75;21048;-56
2022/09/27 06:46:06;;;;;;;37.60;16.20;;;17.80;90.30;;;;;;1900334;75;21102;-56
2022/09/27 06:48:52;;;;;;;20.68;12.50;;;17.90;90.30;;;;;;1900162;75;21127;-57
2022/09/27 06:51:21;;;;;;;22.22;10.82;;;18.00;90.30;;;;;;1902161;75;21098;-57
2022/09/27 06:53:51;;;;;;;11.22;6.17;;;18.00;90.30;;;;;;1902033;75;21098;-57
2022/09/27 06:56:22;;;;;;;10.55;3.75;;;18.10;90.20;;;;;;1902235;75;21037;-57
2022/09/27 07:01:46;;;;;;;5.05;2.62;;;18.20;90.10;;;;;;1902015;75;21087;-57
2022/09/27 07:04:33;;;;;;;4.80;2.55;;;18.40;90.00;;;;;;1902034;75;21582;-56
2022/09/27 07:07:23;;;;;;;3.92;2.05;;;18.50;89.80;;;;;;1899976;75;21067;-57
2022/09/27 07:09:52;;;;;;;3.50;2.05;;;18.60;89.50;;;;;;1902152;75;21025;-57
2022/09/27 07:12:23;;;;;;;5.83;2.67;;;18.70;89.40;;;;;;1902047;75;21052;-57
2022/09/27 07:14:52;;;;;;;3.08;2.25;;;18.80;89.30;;;;;;1902029;75;21013;-56
2022/09/27 07:17:22;;;;;;;5.90;2.50;;;18.90;89.10;;;;;;1902087;75;21026;-57
2022/09/27 07:19:53;;;;;;;6.62;2.37;;;19.00;89.00;;;;;;1902002;75;21545;-57
2022/09/27 07:22:22;;;;;;;7.00;2.62;;;19.10;89.30;;;;;;1902004;75;21001;-56
2022/09/27 07:24:53;;;;;;;3.80;2.52;;;19.20;88.50;;;;;;1899994;75;21025;-57
2022/09/27 07:27:25;;;;;;;7.25;2.60;;;19.30;88.30;;;;;;1901868;75;21086;-56
2022/09/27 07:29:55;;;;;;;5.62;2.62;;;19.40;88.10;;;;;;1902052;75;21432;-57
2022/09/27 07:32:25;;;;;;;5.87;2.52;;;19.40;87.70;;;;;;1901951;75;21099;-57
2022/09/27 07:34:55;;;;;;;5.28;2.77;;;19.50;87.30;;;;;;1902225;75;21376;-57
2022/09/27 07:37:24;;;;;;;6.62;3.45;;;19.60;87.20;;;;;;1901982;75;21029;-57
2022/09/27 07:39:54;;;;;;;12.43;4.15;;;19.60;87.20;;;;;;1902165;75;21040;-57
2022/09/27 07:42:23;;;;;;;22.42;4.87;;;19.60;87.10;;;;;;1901996;75;21036;-57
2022/09/27 07:44:57;;;;;;;17.25;4.95;;;19.60;86.60;;;;;;1901769;75;21032;-57
2022/09/27 07:47:32;;;;;;;18.57;5.35;;;19.60;86.70;;;;;;1899409;75;21044;-56
2022/09/27 07:50:04;;;;;;;4.83;2.87;;;19.70;86.40;;;;;;1901211;75;21101;-56
2022/09/27 07:52:45;;;;;;;4.05;2.08;;;19.70;85.80;;;;;;1895138;75;21094;-56
2022/09/27 07:55:32;;;;;;;2.60;1.80;;;19.80;85.60;;;;;;1902498;75;21027;-56
2022/09/27 07:58:07;;;;;;;2.50;1.50;;;19.80;85.10;;;;;;1896986;75;21095;-56
2022/09/27 08:00:39;;;;;;;2.65;1.45;;;19.90;84.80;;;;;;1901911;75;21154;-57
2022/09/27 08:03:17;;;;;;;10.55;1.90;;;19.90;84.00;;;;;;1902146;75;21636;-57
2022/09/27 08:05:44;;;;;;;4.12;2.02;;;20.00;83.50;;;;;;1900851;75;21108;-57
2022/09/27 08:08:14;;;;;;;6.17;3.75;;;20.10;82.40;;;;;;1901980;75;21103;-57
2022/09/27 08:10:45;;;;;;;6.58;2.00;;;20.10;82.10;;;;;;1902186;75;21545;-57
2022/09/27 08:13:18;;;;;;;1.95;1.30;;;20.20;81.60;;;;;;1914665;75;21008;-57
2022/09/27 08:15:51;;;;;;;6.87;1.65;;;20.30;81.10;;;;;;1914731;75;21090;-57
2022/09/27 08:18:20;;;;;;;5.37;1.40;;;20.40;80.00;;;;;;1914760;75;21226;-57
2022/09/27 08:20:51;;;;;;;5.00;2.20;;;20.50;79.60;;;;;;1912223;74;21157;-56
2022/09/27 08:23:38;;;;;;;4.67;1.87;;;20.50;79.20;;;;;;1914576;75;21095;-57
2022/09/27 08:26:11;;;;;;;8.43;5.97;;;20.60;79.30;;;;;;1913346;75;21076;-57
2022/09/27 08:28:47;;;;;;;15.08;2.00;;;20.70;79.20;;;;;;1912417;75;21194;-56
2022/09/27 08:31:18;;;;;;;2.40;1.42;;;20.80;79.00;;;;;;1913908;75;21059;-56
2022/09/27 08:33:50;;;;;;;4.70;1.30;;;20.90;78.60;;;;;;1914552;75;21518;-57
2022/09/27 08:36:22;;;;;;;9.93;2.60;;;21.00;78.00;;;;;;1914610;75;21028;-56
2022/09/27 08:38:56;;;;;;;7.00;2.50;;;21.10;77.90;;;;;;1914726;75;21123;-57
2022/09/27 08:41:47;;;;;;;4.60;1.70;;;21.20;77.70;;;;;;1914201;75;21018;-57
2022/09/27 08:44:39;;;;;;;6.75;1.77;;;21.30;77.80;;;;;;1914380;74;21077;-57
2022/09/27 08:47:41;;;;;;;3.15;1.90;;;21.40;77.80;;;;;;1913393;75;21068;-55
2022/09/27 08:50:25;;;;;;;4.90;3.02;;;21.60;77.50;;;;;;1914480;74;21079;-55
2022/09/27 08:52:57;;;;;;;11.05;2.70;;;21.80;76.60;;;;;;1911692;75;21098;-56
2022/09/27 08:55:30;;;;;;;4.00;2.10;;;21.90;76.80;;;;;;1914022;75;21414;-56
2022/09/27 08:57:59;;;;;;;3.40;1.52;;;21.90;76.60;;;;;;1914625;75;21478;-56
2022/09/27 09:00:30;;;;;;;3.35;1.37;;;22.00;76.30;;;;;;1914695;75;21081;-56
2022/09/27 09:03:01;;;;;;;5.80;1.65;;;22.10;76.30;;;;;;1914584;75;21018;-56
2022/09/27 09:05:37;;;;;;;7.78;2.00;;;22.20;76.20;;;;;;1914742;75;21070;-56
2022/09/27 09:08:17;;;;;;;6.42;2.00;;;22.30;75.90;;;;;;1914833;75;21027;-56
2022/09/27 09:14:09;;;;;;;4.37;1.57;;;22.60;75.10;;;;;;1914626;75;21157;-56
2022/09/27 09:16:56;;;;;;;7.58;2.05;;;22.60;74.70;;;;;;1913309;75;21077;-56
2022/09/27 09:19:38;;;;;;;6.53;1.65;;;22.70;74.60;;;;;;1914256;75;21135;-56
2022/09/27 09:22:42;;;;;;;4.22;1.45;;;22.70;74.20;;;;;;1912791;75;21063;-57
2022/09/27 09:25:29;;;;;;;7.67;1.77;;;22.80;73.50;;;;;;1913894;75;21022;-56
2022/09/27 09:28:10;;;;;;;2.83;1.87;;;22.70;73.40;;;;;;1914663;74;21097;-57
2022/09/27 09:31:16;;;;;;;5.37;2.50;;;22.80;72.70;;;;;;1914951;75;21050;-56
2022/09/27 09:33:48;;;;;;;3.70;1.45;;;22.90;72.20;;;;;;1914768;75;21093;-56
2022/09/27 09:36:29;;;;;;;1.80;1.22;;;23.00;71.30;;;;;;1914601;75;21125;-57
2022/09/27 09:39:07;;;;;;;4.97;1.70;;;23.10;70.90;;;;;;1914674;74;21058;-57
2022/09/27 09:41:44;;;;;;;3.35;1.50;;;23.20;70.40;;;;;;1914197;75;21469;-57
2022/09/27 09:44:19;;;;;;;7.33;2.40;;;23.40;68.80;;;;;;1892780;75;21060;-57
2022/09/27 09:46:52;;;;;;;4.72;1.80;;;23.40;68.10;;;;;;1914589;75;21547;-57
2022/09/27 09:49:29;;;;;;;6.70;1.80;;;23.40;67.50;;;;;;1914803;75;21504;-57
2022/09/27 09:52:07;;;;;;;5.12;1.60;;;23.40;66.90;;;;;;1913596;75;21159;-57
2022/09/27 09:54:48;;;;;;;6.78;2.37;;;23.30;66.60;;;;;;1912900;75;21058;-56
2022/09/27 09:57:35;;;;;;;5.22;2.60;;;23.20;66.20;;;;;;1914855;75;21019;-56
2022/09/27 10:00:14;;;;;;;4.10;1.50;;;23.10;65.90;;;;;;1914727;75;20991;-57
2022/09/27 10:02:48;;;;;;;5.65;1.70;;;23.00;65.20;;;;;;1914765;75;21046;-57
2022/09/27 10:05:22;;;;;;;4.58;1.85;;;22.90;64.90;;;;;;1914342;75;21080;-57
2022/09/27 10:07:55;;;;;;;6.33;1.57;;;22.90;64.60;;;;;;1913553;75;21099;-57
2022/09/27 10:10:25;;;;;;;3.45;1.80;;;22.80;64.70;;;;;;1914756;74;21031;-57
2022/09/27 10:12:58;;;;;;;5.95;1.90;;;22.80;64.30;;;;;;1916856;74;21079;-56
2022/09/27 10:15:30;;;;;;;3.30;1.82;;;22.80;64.40;;;;;;1924190;74;21586;-56
2022/09/27 10:18:00;;;;;;;4.67;2.30;;;22.90;64.30;;;;;;1924436;74;21096;-56
2022/09/27 10:20:33;;;;;;;4.00;2.00;;;22.80;64.00;;;;;;1924507;74;21078;-56
2022/09/27 10:23:07;;;;;;;4.78;1.60;;;22.90;63.30;;;;;;1924394;74;20998;-56
2022/09/27 10:25:51;;;;;;;20.35;2.40;;;22.90;62.80;;;;;;1883667;76;21096;-57
2022/09/27 10:28:44;;;;;;;14.73;2.92;;;23.00;63.00;;;;;;1887201;76;21049;-57
2022/09/27 10:31:17;;;;;;;6.03;1.80;;;23.00;62.30;;;;;;1878081;76;21461;-57
2022/09/27 10:34:00;;;;;;;3.20;1.45;;;23.10;62.30;;;;;;1875096;76;21758;-57
2022/09/27 10:36:33;;;;;;;6.42;2.10;;;23.10;62.00;;;;;;1877771;76;21027;-57
2022/09/27 10:39:05;;;;;;;18.15;3.35;;;23.10;62.20;;;;;;1877995;76;21092;-57
2022/09/27 10:41:40;;;;;;;4.72;2.12;;;23.10;61.60;;;;;;1875325;76;21126;-57
2022/09/27 10:44:22;;;;;;;4.60;1.80;;;23.10;62.00;;;;;;1875145;76;21083;-57
2022/09/27 10:47:07;;;;;;;3.52;2.52;;;23.10;61.80;;;;;;1876629;76;21533;-57
2022/09/27 10:49:56;;;;;;;7.58;3.65;;;23.10;61.60;;;;;;1876516;76;21071;-56
2022/09/27 10:52:31;;;;;;;4.03;2.50;;;23.10;61.90;;;;;;1876030;76;21086;-56
2022/09/27 10:55:24;;;;;;;2.58;1.47;;;23.20;62.40;;;;;;1878056;76;21034;-56
2022/09/27 10:57:56;;;;;;;5.03;1.67;;;23.20;62.10;;;;;;1877924;76;21117;-56
2022/09/27 11:00:27;;;;;;;6.10;2.02;;;23.20;62.00;;;;;;1878091;76;21073;-56
2022/09/27 11:03:01;;;;;;;9.88;3.67;;;23.20;62.20;;;;;;1878010;76;21027;-56
2022/09/27 11:05:34;;;;;;;5.30;3.05;;;23.20;62.50;;;;;;1877746;76;21090;-57
2022/09/27 11:08:09;;;;;;;3.62;2.33;;;23.20;62.50;;;;;;1878045;76;21465;-56
2022/09/27 11:10:40;;;;;;;11.50;2.55;;;23.10;62.40;;;;;;1866611;76;21095;-56
2022/09/27 11:13:18;;;;;;;2.58;1.62;;;23.20;62.40;;;;;;1874378;76;21136;-57
2022/09/27 11:16:10;;;;;;;3.52;1.80;;;23.20;62.20;;;;;;1870429;76;21086;-55
2022/09/27 11:19:08;;;;;;;3.95;1.95;;;23.20;62.50;;;;;;1869669;77;21191;-57
2022/09/27 11:22:00;;;;;;;4.17;1.80;;;23.20;62.70;;;;;;1869405;77;21058;-57
2022/09/27 11:24:47;;;;;;;4.45;2.62;;;23.20;62.20;;;;;;1869328;77;21117;-51
2022/09/27 11:27:45;;;;;;;4.65;2.40;;;23.20;62.00;;;;;;1831796;77;21075;-53
2022/09/27 11:30:22;;;;;;;15.43;3.87;;;23.20;62.40;;;;;;1869954;77;21011;-57
2022/09/27 11:33:19;;;;;;;7.87;3.77;;;23.10;62.20;;;;;;1807148;79;21113;-57
2022/09/27 11:35:56;;;;;;;5.53;2.10;;;23.10;61.90;;;;;;1911316;74;20995;-56
2022/09/27 11:38:33;;;;;;;10.78;2.33;;;23.10;61.70;;;;;;1923666;74;21066;-57
2022/09/27 11:41:29;;;;;;;6.47;2.60;;;23.10;61.70;;;;;;1923207;74;21028;-56
2022/09/27 11:44:13;;;;;;;3.42;2.08;;;23.10;61.50;;;;;;1923622;74;21087;-57
2022/09/27 11:46:44;;;;;;;3.87;1.60;;;23.10;61.00;;;;;;1923773;74;21141;-56
2022/09/27 11:49:45;;;;;;;4.90;2.08;;;23.20;60.80;;;;;;1923490;74;21114;-57
2022/09/27 11:52:33;;;;;;;2.95;1.62;;;23.20;60.50;;;;;;1922044;74;21090;-57
2022/09/27 11:55:17;;;;;;;6.53;2.00;;;23.20;60.30;;;;;;1923484;74;21173;-57
2022/09/27 11:57:54;;;;;;;3.17;2.02;;;23.10;60.20;;;;;;1923302;74;21031;-57
2022/09/27 12:00:26;;;;;;;22.70;14.07;;;23.10;60.20;;;;;;1922040;73;21035;-55
2022/09/27 12:03:22;;;;;;;10.48;2.75;;;23.10;60.20;;;;;;1921991;73;21084;-55
2022/09/27 12:06:10;;;;;;;7.62;4.70;;;23.10;59.80;;;;;;1922823;74;21599;-54
2022/09/27 12:09:07;;;;;;;3.30;1.60;;;23.10;59.60;;;;;;1891180;74;21148;-57
2022/09/27 12:11:46;;;;;;;5.58;1.82;;;23.20;59.40;;;;;;1923471;74;21117;-58
2022/09/27 12:14:37;;;;;;;3.67;1.77;;;23.20;58.20;;;;;;1922557;74;21071;-58
2022/09/27 12:17:09;;;;;;;33.48;5.03;;;23.20;57.80;;;;;;1921534;74;21114;-57
2022/09/27 12:19:42;;;;;;;3.22;1.60;;;23.20;57.60;;;;;;1923497;74;21103;-58
2022/09/27 12:22:18;;;;;;;4.37;2.60;;;23.20;56.60;;;;;;1921654;74;21139;-58
2022/09/27 12:24:48;;;;;;;5.42;2.87;;;23.20;56.90;;;;;;1923381;74;21118;-56
2022/09/27 12:27:36;;;;;;;4.60;1.90;;;23.20;56.30;;;;;;1921893;74;21096;-56
2022/09/27 12:30:06;;;;;;;4.28;2.35;;;23.30;56.30;;;;;;1812269;78;21155;-56
2022/09/27 12:33:03;;;;;;;12.10;2.87;;;23.20;56.10;;;;;;1923450;74;21024;-57
2022/09/27 12:35:37;;;;;;;8.55;1.67;;;23.20;56.20;;;;;;1923176;73;21089;-56
2022/09/27 12:38:21;;;;;;;3.45;2.70;;;23.20;55.60;;;;;;1922798;74;21636;-56
2022/09/27 12:40:53;;;;;;;5.87;1.90;;;23.20;55.30;;;;;;1923478;74;21101;-56
2022/09/27 12:43:34;;;;;;;4.65;1.90;;;23.20;55.40;;;;;;1921896;74;21093;-56
2022/09/27 12:46:24;;;;;;;3.72;1.92;;;23.20;55.50;;;;;;1848192;77;21092;-54
2022/09/27 12:49:17;;;;;;;6.15;2.10;;;23.20;53.30;;;;;;1923505;74;21169;-56
2022/09/27 12:51:52;;;;;;;4.50;3.42;;;23.20;54.10;;;;;;1923533;74;21123;-58
2022/09/27 12:54:40;;;;;;;;;;;23.20;53.90;;;;;;1917471;74;21435;-57
2022/09/27 12:57:45;;;;;;;3.30;2.05;;;23.20;50.70;;;;;;1921352;74;20094;-56
2022/09/27 13:00:24;;;;;;;6.08;2.00;;;23.20;53.70;;;;;;1923715;74;21052;-57
2022/09/27 13:03:21;;;;;;;5.80;2.15;;;23.20;53.80;;;;;;1923678;74;21067;-58
2022/09/27 13:06:10;;;;;;;4.65;2.40;;;23.20;53.50;;;;;;1922244;74;21084;-57
2022/09/27 13:09:04;;;;;;;9.48;2.95;;;23.20;53.60;;;;;;1923729;74;21462;-56
2022/09/27 13:12:10;;;;;;;4.97;1.82;;;23.20;53.40;;;;;;1922415;74;21085;-57
2022/09/27 13:15:05;;;;;;;5.30;1.60;;;23.20;53.50;;;;;;1927351;74;21166;-57
2022/09/27 13:17:43;;;;;;;;;;;23.20;53.20;;;;;;1930235;74;21009;-58
2022/09/27 13:20:38;;;;;;;9.23;4.10;;;23.20;51.40;;;;;;1926142;74;20143;-57
2022/09/27 13:23:24;;;;;;;4.12;1.85;;;23.20;52.70;;;;;;1895345;74;21466;-57
2022/09/27 13:26:02;;;;;;;8.28;1.85;;;23.20;52.00;;;;;;1926836;74;21600;-57
2022/09/27 13:28:51;;;;;;;3.02;1.60;;;23.20;51.80;;;;;;1926791;74;21117;-58
2022/09/27 13:31:53;;;;;;;4.45;1.92;;;23.20;51.90;;;;;;1926904;74;21091;-57
2022/09/27 13:34:43;;;;;;;4.58;2.20;;;23.20;51.80;;;;;;1899923;74;21459;-56
2022/09/27 13:37:43;;;;;;;3.42;1.67;;;23.20;51.90;;;;;;1927189;74;21052;-55
2022/09/27 13:40:17;;;;;;;6.83;1.75;;;23.20;51.60;;;;;;1928151;74;21045;-56
2022/09/27 13:43:16;;;;;;;7.10;2.77;;;23.20;51.30;;;;;;1900215;74;21009;-56
2022/09/27 13:45:58;;;;;;;7.95;2.25;;;23.20;51.20;;;;;;1926561;74;21048;-55